createdAt,value
2018-09-29T00:01:03.907Z,11.80
2018-09-29T00:06:07.800Z,11.80
2018-09-29T00:11:11.666Z,11.70
2018-09-29T00:16:15.541Z,11.70
2018-09-29T00:21:19.416Z,11.70
2018-09-29T00:26:23.377Z,11.70
2018-09-29T00:31:27.232Z,11.70
2018-09-29T00:36:37.480Z,11.60
2018-09-29T00:41:41.344Z,11.50
2018-09-29T00:46:46.708Z,11.50
2018-09-29T00:51:50.589Z,11.50
2018-09-29T00:56:54.544Z,11.40
2018-09-29T01:01:58.418Z,11.20
2018-09-29T01:07:02.290Z,11.10
2018-09-29T01:12:06.178Z,10.90
2018-09-29T01:17:10.059Z,10.80
2018-09-29T01:22:13.960Z,10.70
2018-09-29T01:27:17.858Z,10.70
2018-09-29T01:32:21.749Z,10.60
2018-09-29T01:42:29.194Z,10.30
2018-09-29T01:47:33.314Z,10.20
2018-09-29T01:52:37.172Z,10.10
2018-09-29T02:02:44.628Z,9.90
2018-09-29T02:07:48.519Z,9.80
2018-09-29T02:12:52.392Z,9.70
2018-09-29T02:17:56.280Z,9.70
2018-09-29T02:23:00.157Z,9.60
2018-09-29T02:28:04.029Z,9.50
2018-09-29T02:33:07.928Z,9.40
2018-09-29T02:38:11.800Z,9.30
2018-09-29T02:43:22.315Z,9.20
2018-09-29T02:48:26.179Z,9.20
2018-09-29T02:53:30.057Z,9.20
2018-09-29T02:58:33.936Z,9.20
2018-09-29T03:03:37.793Z,9.10
2018-09-29T03:08:41.908Z,9.00
2018-09-29T03:13:45.765Z,9.00
2018-09-29T03:18:49.609Z,8.90
2018-09-29T03:23:53.485Z,8.80
2018-09-29T03:28:58.287Z,8.80
2018-09-29T03:34:02.155Z,8.80
2018-09-29T03:39:08.444Z,8.60
2018-09-29T03:44:12.308Z,8.50
2018-09-29T03:49:16.168Z,8.40
2018-09-29T03:54:20.027Z,8.40
2018-09-29T03:59:23.888Z,8.20
2018-09-29T04:04:27.737Z,8.10
2018-09-29T04:09:31.593Z,8.20
2018-09-29T04:14:35.449Z,8.20
2018-09-29T04:19:39.305Z,8.00
2018-09-29T04:24:43.271Z,7.90
2018-09-29T04:29:47.133Z,12.30
2018-09-29T04:34:50.988Z,7.60
2018-09-29T04:39:54.882Z,7.60
2018-09-29T04:44:58.749Z,7.60
2018-09-29T04:50:02.618Z,7.60
2018-09-29T04:55:06.478Z,7.60
2018-09-29T05:00:10.333Z,7.70
2018-09-29T05:05:15.068Z,7.90
2018-09-29T05:10:18.933Z,8.00
2018-09-29T05:15:22.796Z,7.90
2018-09-29T05:20:26.658Z,7.80
2018-09-29T05:25:30.520Z,7.70
2018-09-29T05:30:34.400Z,7.70
2018-09-29T05:35:38.282Z,7.60
2018-09-29T05:40:42.194Z,7.80
2018-09-29T05:45:46.065Z,8.00
2018-09-29T05:50:50.080Z,8.30
2018-09-29T05:55:53.936Z,8.40
2018-09-29T06:00:58.773Z,9.00
2018-09-29T06:06:02.659Z,9.00
2018-09-29T06:11:06.778Z,10.30
2018-09-29T06:16:10.652Z,10.40
2018-09-29T06:21:14.519Z,10.40
2018-09-29T06:26:18.387Z,10.60
2018-09-29T06:31:22.273Z,10.80
2018-09-29T06:36:26.257Z,10.90
2018-09-29T06:41:30.149Z,11.30
2018-09-29T06:46:34.017Z,11.70
2018-09-29T06:51:37.881Z,11.70
2018-09-29T06:56:41.744Z,11.90
2018-09-29T07:01:45.612Z,12.50
2018-09-29T07:06:49.476Z,12.80
2018-09-29T07:11:53.350Z,12.80
2018-09-29T07:16:57.208Z,13.30
2018-09-29T07:22:01.574Z,13.30
2018-09-29T07:27:05.715Z,13.30
2018-09-29T07:32:09.581Z,13.80
2018-09-29T07:37:13.452Z,13.40
2018-09-29T07:42:17.316Z,13.30
2018-09-29T07:47:21.182Z,13.30
2018-09-29T07:52:25.061Z,13.50
2018-09-29T07:57:29.250Z,13.50
2018-09-29T08:02:33.350Z,14.00
2018-09-29T08:07:37.230Z,14.30
2018-09-29T08:12:41.097Z,14.60
2018-09-29T08:17:44.961Z,14.50
2018-09-29T08:22:48.955Z,14.50
2018-09-29T08:27:52.971Z,14.70
2018-09-29T08:32:57.765Z,15.00
2018-09-29T08:38:01.788Z,14.20
2018-09-29T08:43:05.702Z,14.50
2018-09-29T08:48:09.639Z,14.50
2018-09-29T08:53:13.649Z,13.70
2018-09-29T08:58:18.575Z,14.20
2018-09-29T09:03:22.701Z,13.80
2018-09-29T09:08:26.572Z,13.80
2018-09-29T09:13:30.504Z,13.90
2018-09-29T09:18:34.584Z,14.10
2018-09-29T09:23:39.049Z,14.30
2018-09-29T09:28:42.898Z,13.90
2018-09-29T09:33:47.067Z,14.30
2018-09-29T09:38:50.954Z,14.30
2018-09-29T09:43:54.838Z,14.30
2018-09-29T09:48:58.797Z,14.90
2018-09-29T09:54:02.685Z,15.50
2018-09-29T09:59:06.936Z,15.50
2018-09-29T10:04:10.804Z,16.50
2018-09-29T10:09:15.061Z,16.60
2018-09-29T10:14:19.017Z,17.30
2018-09-29T10:19:23.208Z,18.00
2018-09-29T10:24:27.073Z,18.60
2018-09-29T10:29:30.985Z,19.10
2018-09-29T10:34:34.993Z,19.40
2018-09-29T10:39:39.761Z,19.80
2018-09-29T10:44:45.066Z,19.80
2018-09-29T10:49:49.270Z,19.10
2018-09-29T10:54:53.166Z,17.20
2018-09-29T10:59:57.866Z,17.20
2018-09-29T11:05:02.226Z,18.80
2018-09-29T11:10:06.070Z,19.90
2018-09-29T11:15:09.992Z,24.30
2018-09-29T11:20:13.893Z,20.80
2018-09-29T11:25:18.092Z,20.50
2018-09-29T11:30:24.776Z,20.00
2018-09-29T11:35:28.668Z,20.40
2018-09-29T11:40:33.872Z,19.70
2018-09-29T11:50:43.441Z,16.70
2018-09-29T11:55:49.320Z,18.20
2018-09-29T12:00:53.312Z,19.30
2018-09-29T12:05:57.251Z,19.00
2018-09-29T12:11:01.099Z,18.80
2018-09-29T12:16:05.060Z,19.70
2018-09-29T12:21:08.984Z,19.80
2018-09-29T12:26:12.821Z,20.20
2018-09-29T12:31:17.744Z,20.00
2018-09-29T12:36:22.009Z,19.70
2018-09-29T12:41:26.687Z,18.70
2018-09-29T12:46:31.128Z,18.70
2018-09-29T12:51:35.035Z,20.00
2018-09-29T12:56:38.914Z,21.40
2018-09-29T13:01:42.788Z,21.50
2018-09-29T13:06:46.666Z,20.90
2018-09-29T13:11:50.772Z,21.40
2018-09-29T13:16:54.797Z,21.10
2018-09-29T13:21:58.636Z,20.40
2018-09-29T13:27:02.534Z,19.90
2018-09-29T13:32:15.406Z,19.80
2018-09-29T13:37:24.595Z,19.20
2018-09-29T13:57:42.497Z,17.40
2018-09-29T14:07:50.179Z,18.00
2018-09-29T14:12:54.137Z,18.10
2018-09-29T14:17:58.000Z,19.60
2018-09-29T14:23:02.355Z,20.40
2018-09-29T14:28:06.741Z,19.90
2018-09-29T14:33:10.619Z,20.60
2018-09-29T14:38:14.765Z,21.50
2018-09-29T14:43:18.718Z,21.50
2018-09-29T14:48:22.616Z,21.60
2018-09-29T14:53:27.120Z,22.00
2018-09-29T14:58:31.017Z,22.10
2018-09-29T15:03:35.132Z,21.10
2018-09-29T15:08:39.092Z,19.90
2018-09-29T15:13:44.163Z,19.40
2018-09-29T15:18:48.384Z,19.10
2018-09-29T15:23:52.616Z,19.10
2018-09-29T15:28:56.510Z,19.90
2018-09-29T15:34:01.623Z,19.90
2018-09-29T15:39:09.404Z,19.40
2018-09-29T15:44:13.248Z,19.30
2018-09-29T15:49:18.525Z,19.00
2018-09-29T15:54:22.990Z,19.50
2018-09-29T15:59:26.952Z,18.90
2018-09-29T16:04:31.173Z,16.50
2018-09-29T17:25:29.754Z,12.70
2018-09-29T17:35:37.270Z,12.30
2018-09-29T17:50:48.297Z,12.10
2018-09-29T17:55:52.173Z,12.10
2018-09-29T18:00:56.078Z,12.00
2018-09-29T18:05:59.978Z,12.00
2018-09-29T18:21:12.005Z,11.30
2018-09-29T19:01:43.795Z,10.00
2018-09-29T19:06:48.060Z,9.80
2018-09-29T19:32:08.100Z,9.10
2018-09-29T19:47:19.638Z,9.00
2018-09-29T20:07:35.177Z,8.40
2018-09-29T20:58:15.497Z,8.40
2018-09-29T21:03:19.933Z,8.30
2018-09-29T21:53:59.650Z,7.40
2018-09-29T22:04:07.233Z,6.90
2018-09-29T22:09:11.125Z,6.80
2018-09-29T22:19:18.519Z,6.90
2018-09-29T22:34:29.438Z,6.60
2018-09-29T22:39:33.305Z,6.50
2018-09-29T22:44:37.183Z,6.50
2018-09-29T22:49:41.053Z,6.50
2018-09-29T22:54:45.017Z,6.20
2018-09-29T22:59:48.899Z,6.40
2018-09-29T23:04:56.336Z,6.40
2018-09-29T23:10:01.845Z,6.40
2018-09-29T23:25:13.800Z,6.40
2018-09-29T23:30:17.724Z,6.20
2018-09-29T23:45:28.715Z,6.20
2018-09-29T23:50:32.604Z,6.10
2018-09-29T23:55:36.464Z,6.20
